Kvb Empire — PD5101 — position and weather

sailwx.info

Track history (hours):
 
Tides and Currents Weather Stations Pressure Air Temp Water Temp Dewpoint Dewpoint Depression Visibility Wind Speed Wind Dir Waves Ship Positions

Kvb Empire

Last reported at 2016-May-26 15:33 UTC. Time now 2016-May-26 16:31 UTC.
Position N 51°49' E 004°39'.

Length 183 m; draft 1 m.

Type: Ship. MMSI: 244670090.

Date/timePositionNaut miles runAvg speedWind from/ knotsBaromVisibWave heightAir tempDewpointWater temp
2016-May-26 15:33N 51°49' E 004°39'0 0.0
2016-May-26 14:33N 51°49' E 004°39'0 0.0
2016-May-26 13:33N 51°49' E 004°39'0 0.0
2016-May-26 12:34N 51°49' E 004°39'0 0.0
2016-May-26 11:33N 51°49' E 004°39'0 0.0
2016-May-26 10:33N 51°49' E 004°39'0 0.0
2016-May-26 09:33N 51°49' E 004°39'0 0.0
2016-May-26 08:34N 51°49' E 004°39'0 0.0
2016-May-26 07:34N 51°49' E 004°39'0 0.0
2016-May-26 06:34N 51°49' E 004°39'0 0.0
2016-May-26 05:34N 51°49' E 004°39'0 0.0
2016-May-26 04:33N 51°49' E 004°39'0 0.0
2016-May-26 03:33N 51°49' E 004°39'0 0.0
2016-May-26 02:33N 51°49' E 004°39'0 0.0
2016-May-26 01:33N 51°49' E 004°39'0 0.0
2016-May-26 00:33N 51°49' E 004°39'0 0.0
2016-May-25 23:34N 51°49' E 004°39'0 0.0
2016-May-25 22:34N 51°49' E 004°39'0 0.0
2016-May-25 21:33N 51°49' E 004°39'0 0.0
2016-May-25 20:33N 51°49' E 004°39'0 0.0
2016-May-25 19:33N 51°49' E 004°39'0 0.0
2016-May-25 18:33N 51°49' E 004°39'0 0.0
2016-May-25 17:33N 51°49' E 004°39'0 0.0
2016-May-25 16:33N 51°49' E 004°39'0 0.0
2016-May-25 15:33N 51°49' E 004°39'0 0.0
2016-May-25 14:33N 51°49' E 004°39'0 0.0
2016-May-25 13:34N 51°49' E 004°39'0 0.0
2016-May-25 12:34N 51°49' E 004°39'0 0.0
2016-May-25 11:34N 51°49' E 004°39'0 0.0
2016-May-25 10:33N 51°49' E 004°39'0 0.0
2016-May-25 09:34N 51°49' E 004°39'0 0.0
2016-May-25 08:33N 51°49' E 004°39'0 0.0
2016-May-25 07:33N 51°49' E 004°39'0 0.0
2016-May-25 06:33N 51°49' E 004°39'0 0.0
2016-May-25 05:33N 51°49' E 004°39'3 3.5
2016-May-25 04:34N 51°45' E 004°38'8 7.3
2016-May-25 03:26N 51°42' E 004°26'1 0.6
2016-May-25 02:33N 51°42' E 004°25'0 0.0
2016-May-25 01:33N 51°42' E 004°25'0 0.0
2016-May-25 00:34N 51°42' E 004°25'0 0.0
2016-May-24 23:30N 51°42' E 004°25'0 0.0
2016-May-24 22:33N 51°42' E 004°25'0 0.0
2016-May-24 21:33N 51°42' E 004°25'1 0.9
2016-May-24 20:23N 51°41' E 004°24'7 7.9
2016-May-24 19:30N 51°38' E 004°14'7 7.9
2016-May-24 18:33N 51°30' E 004°13'4 3.8
2016-May-24 17:33N 51°27' E 004°14'1 0.5
2016-May-24 16:28N 51°26' E 004°14'7 7.4
2016-May-24 15:33N 51°20' E 004°18'3 3.2
2016-May-24 14:34N 51°17' E 004°21'0 0.1
2016-May-24 13:34N 51°17' E 004°21'0 0.1
2016-May-24 12:34N 51°17' E 004°21'0 0.1
2016-May-24 11:34N 51°17' E 004°21'2 1.6
2016-May-24 10:34N 51°16' E 004°22'1 1.4
2016-May-24 09:34N 51°15' E 004°24'0 0.0
2016-May-24 08:34N 51°15' E 004°24'0 0.1
2016-May-24 07:33N 51°15' E 004°24'3 2.8
2016-May-24 06:34N 51°17' E 004°21'1 0.6
2016-May-24 05:33N 51°17' E 004°22'0 0.0
2016-May-24 04:33N 51°17' E 004°22'0 0.0
2016-May-24 03:34N 51°17' E 004°22'0 0.0
2016-May-24 02:33N 51°17' E 004°22'0 0.0
2016-May-24 01:33N 51°17' E 004°22'3 3.1
2016-May-24 00:34N 51°19' E 004°20'0 0.0
2016-May-23 23:33N 51°19' E 004°20'0 0.2
2016-May-23 22:33N 51°20' E 004°20'0 0.0
2016-May-23 21:33N 51°20' E 004°20'0 0.0
2016-May-23 20:34N 51°20' E 004°20'0 0.0
2016-May-23 19:34N 51°20' E 004°20'2 2.0
2016-May-23 18:33N 51°21' E 004°17'1 0.8
2016-May-23 17:33N 51°21' E 004°16'0 0.0
2016-May-23 16:33N 51°21' E 004°16'0 0.0
2016-May-23 15:31N 51°21' E 004°16'1 0.8
2016-May-23 14:33N 51°20' E 004°16'0 0.1
2016-May-23 13:34N 51°20' E 004°16'3 2.8
2016-May-23 12:34N 51°18' E 004°18'2 1.8
2016-May-23 11:34N 51°16' E 004°17'0 0.1
2016-May-23 10:34N 51°16' E 004°17'0 0.0
2016-May-23 09:33N 51°16' E 004°17'0 0.0
2016-May-23 08:33N 51°16' E 004°17'0 0.0
2016-May-23 07:33N 51°16' E 004°17'0 0.0
2016-May-23 06:34N 51°16' E 004°17'2 1.8
2016-May-23 05:33N 51°18' E 004°17'1 1.1
2016-May-23 04:34N 51°18' E 004°16'0 0.2
2016-May-23 03:34N 51°18' E 004°16'1 1.1
2016-May-23 02:34N 51°19' E 004°16'2 2.3
2016-May-23 01:33N 51°21' E 004°18'3 3.4
2016-May-23 00:33N 51°23' E 004°15'5 4.8
2016-May-22 23:33N 51°28' E 004°14'8 7.8
2016-May-22 22:33N 51°36' E 004°11'9 7.6
2016-May-22 21:20N 51°41' E 004°24'3 4.1
2016-May-22 20:33N 51°42' E 004°29'8 7.6
2016-May-22 19:33N 51°44' E 004°41'8 7.6
2016-May-22 18:34N 51°48' E 004°51'8 7.8
2016-May-22 17:31N 51°49' E 005°04'45 7.5
2016-May-22 11:31N 51°49' E 006°16'11 7.6
2016-May-22 10:06N 51°42' E 006°28'4 7.8
2016-May-22 09:34N 51°40' E 006°34'7 6.2
2016-May-22 08:30N 51°34' E 006°41'20 6.7
2016-May-22 05:33N 51°15' E 006°45'5 5.2
2016-May-22 04:32N 51°10' E 006°48'14 6.6
2016-May-22 02:23N 50°58' E 006°59'6 6.5
2016-May-22 01:31N 50°52' E 007°02'7 7.1
2016-May-22 00:33N 50°46' E 007°05'0 0.3
2016-May-21 23:34N 50°45' E 007°05'0 0.0
2016-May-21 22:34N 50°45' E 007°05'0 0.0
2016-May-21 21:33N 50°45' E 007°05'0 0.0
2016-May-21 20:33N 50°45' E 007°05'0 0.0
2016-May-21 19:33N 50°45' E 007°05'0 0.0
2016-May-21 18:33N 50°45' E 007°05'0 0.0
2016-May-21 17:33N 50°45' E 007°05'0 0.0
2016-May-21 16:33N 50°45' E 007°05'0 0.0
2016-May-21 15:34N 50°45' E 007°05'0 0.1
2016-May-21 14:34N 50°46' E 007°05'0 0.0
2016-May-21 13:33N 50°46' E 007°05'0 0.0
2016-May-21 12:33N 50°46' E 007°05'0 0.0
2016-May-21 11:33N 50°46' E 007°05'0 0.0
2016-May-21 10:34N 50°46' E 007°05'0 0.0
2016-May-21 09:34N 50°46' E 007°05'6 5.6
2016-May-21 08:34N 50°41' E 007°11'63 5.7
2016-May-20 21:31N 50°05' E 008°32'0 0.0
2016-May-20 20:33N 50°05' E 008°32'0 0.0
2016-May-20 19:30N 50°05' E 008°32'0 0.0
2016-May-20 18:34N 50°05' E 008°32'0 0.0
2016-May-20 17:27N 50°05' E 008°32'0 0.0
2016-May-20 10:32N 50°05' E 008°32'3 2.6
2016-May-20 09:31N 50°05' E 008°35'0 0.0
2016-May-20 08:31N 50°05' E 008°35'0 0.0
2016-May-20 07:33N 50°05' E 008°35'3 2.3
2016-May-20 06:26N 50°06' E 008°39'3 2.8
2016-May-20 05:34N 50°07' E 008°43'0 0.0
2016-May-20 04:33N 50°07' E 008°43'0 0.0
2016-May-20 03:33N 50°07' E 008°43'0 0.0
2016-May-20 02:33N 50°07' E 008°43'0 0.0
2016-May-20 01:33N 50°07' E 008°43'0 0.0
2016-May-20 00:33N 50°07' E 008°43'0 0.0
2016-May-19 23:33N 50°07' E 008°43'0 0.0
2016-May-19 22:33N 50°07' E 008°43'1 0.5
2016-May-19 21:33N 50°06' E 008°42'68 2.9
2016-May-18 22:20N 50°41' E 007°11'4 5.1
2016-May-18 21:33N 50°44' E 007°07'5 5.0
2016-May-18 20:34N 50°48' E 007°02'4 3.4
2016-May-18 19:22N 50°52' E 007°02'3 3.8
2016-May-18 18:33N 50°55' E 006°59'12 3.6
2016-May-18 15:05N 51°06' E 006°53'3 4.9
2016-May-18 14:32N 51°09' E 006°51'3 2.7
2016-May-18 13:34N 51°10' E 006°48'4 4.1
2016-May-18 12:33N 51°14' E 006°44'2 2.5
2016-May-18 11:34N 51°16' E 006°42'4 4.3
2016-May-18 10:31N 51°20' E 006°42'8 3.4
2016-May-18 08:15N 51°28' E 006°42'4 3.7
2016-May-18 07:08N 51°32' E 006°41'3 4.5
2016-May-18 06:33N 51°35' E 006°40'4 4.0
2016-May-18 05:33N 51°38' E 006°35'4 4.4
2016-May-18 04:33N 51°40' E 006°29'10 5.0
2016-May-18 02:32N 51°48' E 006°19'13 5.5
2016-May-18 00:15N 51°53' E 006°00'33 5.0
2016-May-17 17:34N 52°01' E 005°08'3 3.1
2016-May-17 16:34N 52°04' E 005°06'3 2.7
2016-May-17 15:33N 52°06' E 005°05'8 8.0
2016-May-17 14:33N 52°14' E 005°01'7 7.0
2016-May-17 13:34N 52°21' E 004°59'6 6.4
2016-May-17 12:33N 52°25' E 004°51'1 1.4
2016-May-17 11:33N 52°24' E 004°49'0 0.1
2016-May-17 10:33N 52°24' E 004°49'0 0.0
2016-May-17 09:33N 52°24' E 004°49'0 0.0
2016-May-17 08:33N 52°24' E 004°49'0 0.0
2016-May-17 07:33N 52°24' E 004°49'2 2.2
2016-May-17 06:33N 52°25' E 004°46'0 0.1
2016-May-17 05:34N 52°25' E 004°46'0 0.1
2016-May-17 04:33N 52°25' E 004°46'0 0.0
2016-May-17 03:34N 52°25' E 004°46'0 0.0
2016-May-17 02:33N 52°25' E 004°46'0 0.0
2016-May-17 01:34N 52°25' E 004°46'0 0.0
2016-May-17 00:33N 52°25' E 004°46'0 0.0
2016-May-16 23:34N 52°25' E 004°46'0 0.0
2016-May-16 22:33N 52°25' E 004°46'0 0.0
2016-May-16 21:15N 52°25' E 004°46'0 0.0
2016-May-16 20:33N 52°25' E 004°46'0 0.0
2016-May-16 19:33N 52°25' E 004°46'0 0.0
2016-May-16 18:27N 52°25' E 004°46'0 0.0
2016-May-16 17:33N 52°25' E 004°46'0 0.0
2016-May-16 16:34N 52°25' E 004°46'7 6.9
2016-May-16 15:33N 52°23' E 004°57'  
Track history (hours):
 
Tides and Currents Weather Stations Pressure Air Temp Water Temp Dewpoint Dewpoint Depression Visibility Wind Speed Wind Dir Waves Ship Positions

Kvb Empire

Last reported at 2016-May-26 15:33 UTC. Time now 2016-May-26 16:31 UTC.
Position N 51°49' E 004°39'.

Length 183 m; draft 1 m.

Type: Ship. MMSI: 244670090.

Date/timePositionNaut miles runAvg speedWind from/ knotsBaromVisibWave heightAir tempDewpointWater temp
2016-May-26 15:33N 51°49' E 004°39'0 0.0
2016-May-26 14:33N 51°49' E 004°39'0 0.0
2016-May-26 13:33N 51°49' E 004°39'0 0.0
2016-May-26 12:34N 51°49' E 004°39'0 0.0
2016-May-26 11:33N 51°49' E 004°39'0 0.0
2016-May-26 10:33N 51°49' E 004°39'0 0.0
2016-May-26 09:33N 51°49' E 004°39'0 0.0
2016-May-26 08:34N 51°49' E 004°39'0 0.0
2016-May-26 07:34N 51°49' E 004°39'0 0.0
2016-May-26 06:34N 51°49' E 004°39'0 0.0
2016-May-26 05:34N 51°49' E 004°39'0 0.0
2016-May-26 04:33N 51°49' E 004°39'0 0.0
2016-May-26 03:33N 51°49' E 004°39'0 0.0
2016-May-26 02:33N 51°49' E 004°39'0 0.0
2016-May-26 01:33N 51°49' E 004°39'0 0.0
2016-May-26 00:33N 51°49' E 004°39'0 0.0
2016-May-25 23:34N 51°49' E 004°39'0 0.0
2016-May-25 22:34N 51°49' E 004°39'0 0.0
2016-May-25 21:33N 51°49' E 004°39'0 0.0
2016-May-25 20:33N 51°49' E 004°39'0 0.0
2016-May-25 19:33N 51°49' E 004°39'0 0.0
2016-May-25 18:33N 51°49' E 004°39'0 0.0
2016-May-25 17:33N 51°49' E 004°39'0 0.0
2016-May-25 16:33N 51°49' E 004°39'0 0.0
2016-May-25 15:33N 51°49' E 004°39'0 0.0
2016-May-25 14:33N 51°49' E 004°39'0 0.0
2016-May-25 13:34N 51°49' E 004°39'0 0.0
2016-May-25 12:34N 51°49' E 004°39'0 0.0
2016-May-25 11:34N 51°49' E 004°39'0 0.0
2016-May-25 10:33N 51°49' E 004°39'0 0.0
2016-May-25 09:34N 51°49' E 004°39'0 0.0
2016-May-25 08:33N 51°49' E 004°39'0 0.0
2016-May-25 07:33N 51°49' E 004°39'0 0.0
2016-May-25 06:33N 51°49' E 004°39'0 0.0
2016-May-25 05:33N 51°49' E 004°39'3 3.5
2016-May-25 04:34N 51°45' E 004°38'8 7.3
2016-May-25 03:26N 51°42' E 004°26'1 0.6
2016-May-25 02:33N 51°42' E 004°25'0 0.0
2016-May-25 01:33N 51°42' E 004°25'0 0.0
2016-May-25 00:34N 51°42' E 004°25'0 0.0
2016-May-24 23:30N 51°42' E 004°25'0 0.0
2016-May-24 22:33N 51°42' E 004°25'0 0.0
2016-May-24 21:33N 51°42' E 004°25'1 0.9
2016-May-24 20:23N 51°41' E 004°24'7 7.9
2016-May-24 19:30N 51°38' E 004°14'7 7.9
2016-May-24 18:33N 51°30' E 004°13'4 3.8
2016-May-24 17:33N 51°27' E 004°14'1 0.5
2016-May-24 16:28N 51°26' E 004°14'7 7.4
2016-May-24 15:33N 51°20' E 004°18'3 3.2
2016-May-24 14:34N 51°17' E 004°21'0 0.1
2016-May-24 13:34N 51°17' E 004°21'0 0.1
2016-May-24 12:34N 51°17' E 004°21'0 0.1
2016-May-24 11:34N 51°17' E 004°21'2 1.6
2016-May-24 10:34N 51°16' E 004°22'1 1.4
2016-May-24 09:34N 51°15' E 004°24'0 0.0
2016-May-24 08:34N 51°15' E 004°24'0 0.1
2016-May-24 07:33N 51°15' E 004°24'3 2.8
2016-May-24 06:34N 51°17' E 004°21'1 0.6
2016-May-24 05:33N 51°17' E 004°22'0 0.0
2016-May-24 04:33N 51°17' E 004°22'0 0.0
2016-May-24 03:34N 51°17' E 004°22'0 0.0
2016-May-24 02:33N 51°17' E 004°22'0 0.0
2016-May-24 01:33N 51°17' E 004°22'3 3.1
2016-May-24 00:34N 51°19' E 004°20'0 0.0
2016-May-23 23:33N 51°19' E 004°20'0 0.2
2016-May-23 22:33N 51°20' E 004°20'0 0.0
2016-May-23 21:33N 51°20' E 004°20'0 0.0
2016-May-23 20:34N 51°20' E 004°20'0 0.0
2016-May-23 19:34N 51°20' E 004°20'2 2.0
2016-May-23 18:33N 51°21' E 004°17'1 0.8
2016-May-23 17:33N 51°21' E 004°16'0 0.0
2016-May-23 16:33N 51°21' E 004°16'0 0.0
2016-May-23 15:31N 51°21' E 004°16'1 0.8
2016-May-23 14:33N 51°20' E 004°16'0 0.1
2016-May-23 13:34N 51°20' E 004°16'3 2.8
2016-May-23 12:34N 51°18' E 004°18'2 1.8
2016-May-23 11:34N 51°16' E 004°17'0 0.1
2016-May-23 10:34N 51°16' E 004°17'0 0.0
2016-May-23 09:33N 51°16' E 004°17'0 0.0
2016-May-23 08:33N 51°16' E 004°17'0 0.0
2016-May-23 07:33N 51°16' E 004°17'0 0.0
2016-May-23 06:34N 51°16' E 004°17'2 1.8
2016-May-23 05:33N 51°18' E 004°17'1 1.1
2016-May-23 04:34N 51°18' E 004°16'0 0.2
2016-May-23 03:34N 51°18' E 004°16'1 1.1
2016-May-23 02:34N 51°19' E 004°16'2 2.3
2016-May-23 01:33N 51°21' E 004°18'3 3.4
2016-May-23 00:33N 51°23' E 004°15'5 4.8
2016-May-22 23:33N 51°28' E 004°14'8 7.8
2016-May-22 22:33N 51°36' E 004°11'9 7.6
2016-May-22 21:20N 51°41' E 004°24'3 4.1
2016-May-22 20:33N 51°42' E 004°29'8 7.6
2016-May-22 19:33N 51°44' E 004°41'8 7.6
2016-May-22 18:34N 51°48' E 004°51'8 7.8
2016-May-22 17:31N 51°49' E 005°04'45 7.5
2016-May-22 11:31N 51°49' E 006°16'11 7.6
2016-May-22 10:06N 51°42' E 006°28'4 7.8
2016-May-22 09:34N 51°40' E 006°34'7 6.2
2016-May-22 08:30N 51°34' E 006°41'20 6.7
2016-May-22 05:33N 51°15' E 006°45'5 5.2
2016-May-22 04:32N 51°10' E 006°48'14 6.6
2016-May-22 02:23N 50°58' E 006°59'6 6.5
2016-May-22 01:31N 50°52' E 007°02'7 7.1
2016-May-22 00:33N 50°46' E 007°05'0 0.3
2016-May-21 23:34N 50°45' E 007°05'0 0.0
2016-May-21 22:34N 50°45' E 007°05'0 0.0
2016-May-21 21:33N 50°45' E 007°05'0 0.0
2016-May-21 20:33N 50°45' E 007°05'0 0.0
2016-May-21 19:33N 50°45' E 007°05'0 0.0
2016-May-21 18:33N 50°45' E 007°05'0 0.0
2016-May-21 17:33N 50°45' E 007°05'0 0.0
2016-May-21 16:33N 50°45' E 007°05'0 0.0
2016-May-21 15:34N 50°45' E 007°05'0 0.1
2016-May-21 14:34N 50°46' E 007°05'0 0.0
2016-May-21 13:33N 50°46' E 007°05'0 0.0
2016-May-21 12:33N 50°46' E 007°05'0 0.0
2016-May-21 11:33N 50°46' E 007°05'0 0.0
2016-May-21 10:34N 50°46' E 007°05'0 0.0
2016-May-21 09:34N 50°46' E 007°05'6 5.6
2016-May-21 08:34N 50°41' E 007°11'63 5.7
2016-May-20 21:31N 50°05' E 008°32'0 0.0
2016-May-20 20:33N 50°05' E 008°32'0 0.0
2016-May-20 19:30N 50°05' E 008°32'0 0.0
2016-May-20 18:34N 50°05' E 008°32'0 0.0
2016-May-20 17:27N 50°05' E 008°32'0 0.0
2016-May-20 10:32N 50°05' E 008°32'3 2.6
2016-May-20 09:31N 50°05' E 008°35'0 0.0
2016-May-20 08:31N 50°05' E 008°35'0 0.0
2016-May-20 07:33N 50°05' E 008°35'3 2.3
2016-May-20 06:26N 50°06' E 008°39'3 2.8
2016-May-20 05:34N 50°07' E 008°43'0 0.0
2016-May-20 04:33N 50°07' E 008°43'0 0.0
2016-May-20 03:33N 50°07' E 008°43'0 0.0
2016-May-20 02:33N 50°07' E 008°43'0 0.0
2016-May-20 01:33N 50°07' E 008°43'0 0.0
2016-May-20 00:33N 50°07' E 008°43'0 0.0
2016-May-19 23:33N 50°07' E 008°43'0 0.0
2016-May-19 22:33N 50°07' E 008°43'1 0.5
2016-May-19 21:33N 50°06' E 008°42'68 2.9
2016-May-18 22:20N 50°41' E 007°11'4 5.1
2016-May-18 21:33N 50°44' E 007°07'5 5.0
2016-May-18 20:34N 50°48' E 007°02'4 3.4
2016-May-18 19:22N 50°52' E 007°02'3 3.8
2016-May-18 18:33N 50°55' E 006°59'12 3.6
2016-May-18 15:05N 51°06' E 006°53'3 4.9
2016-May-18 14:32N 51°09' E 006°51'3 2.7
2016-May-18 13:34N 51°10' E 006°48'4 4.1
2016-May-18 12:33N 51°14' E 006°44'2 2.5
2016-May-18 11:34N 51°16' E 006°42'4 4.3
2016-May-18 10:31N 51°20' E 006°42'8 3.4
2016-May-18 08:15N 51°28' E 006°42'4 3.7
2016-May-18 07:08N 51°32' E 006°41'3 4.5
2016-May-18 06:33N 51°35' E 006°40'4 4.0
2016-May-18 05:33N 51°38' E 006°35'4 4.4
2016-May-18 04:33N 51°40' E 006°29'10 5.0
2016-May-18 02:32N 51°48' E 006°19'13 5.5
2016-May-18 00:15N 51°53' E 006°00'33 5.0
2016-May-17 17:34N 52°01' E 005°08'3 3.1
2016-May-17 16:34N 52°04' E 005°06'3 2.7
2016-May-17 15:33N 52°06' E 005°05'8 8.0
2016-May-17 14:33N 52°14' E 005°01'7 7.0
2016-May-17 13:34N 52°21' E 004°59'6 6.4
2016-May-17 12:33N 52°25' E 004°51'1 1.4
2016-May-17 11:33N 52°24' E 004°49'0 0.1
2016-May-17 10:33N 52°24' E 004°49'0 0.0
2016-May-17 09:33N 52°24' E 004°49'0 0.0
2016-May-17 08:33N 52°24' E 004°49'0 0.0
2016-May-17 07:33N 52°24' E 004°49'2 2.2
2016-May-17 06:33N 52°25' E 004°46'0 0.1
2016-May-17 05:34N 52°25' E 004°46'0 0.1
2016-May-17 04:33N 52°25' E 004°46'0 0.0
2016-May-17 03:34N 52°25' E 004°46'0 0.0
2016-May-17 02:33N 52°25' E 004°46'0 0.0
2016-May-17 01:34N 52°25' E 004°46'0 0.0
2016-May-17 00:33N 52°25' E 004°46'0 0.0
2016-May-16 23:34N 52°25' E 004°46'0 0.0
2016-May-16 22:33N 52°25' E 004°46'0 0.0
2016-May-16 21:15N 52°25' E 004°46'0 0.0
2016-May-16 20:33N 52°25' E 004°46'0 0.0
2016-May-16 19:33N 52°25' E 004°46'0 0.0
2016-May-16 18:27N 52°25' E 004°46'0 0.0
2016-May-16 17:33N 52°25' E 004°46'0 0.0
2016-May-16 16:34N 52°25' E 004°46'7 6.9
2016-May-16 15:33N 52°23' E 004°57'  

Dump ship's entire track history